createdAt,value
2022-11-05T00:01:21.507Z,10.50
2022-11-05T00:04:08.209Z,10.48
2022-11-05T00:06:54.785Z,10.40
2022-11-05T00:09:31.427Z,10.40
2022-11-05T00:12:26.730Z,10.38
2022-11-05T00:15:13.430Z,10.30
2022-11-05T00:17:41.666Z,10.30
2022-11-05T00:20:13.607Z,10.30
2022-11-05T00:23:00.274Z,10.40
2022-11-05T00:25:29.929Z,10.40
2022-11-05T00:28:02.234Z,10.32
2022-11-05T00:30:30.564Z,10.34
2022-11-05T00:33:05.138Z,10.40
2022-11-05T00:35:32.920Z,10.40
2022-11-05T00:38:00.719Z,10.30
2022-11-05T00:40:28.646Z,10.30
2022-11-05T00:43:15.262Z,10.30
2022-11-05T00:45:43.329Z,10.30
2022-11-05T00:48:29.862Z,10.34
2022-11-05T00:50:57.716Z,10.40
2022-11-05T00:53:25.561Z,10.40
2022-11-05T00:55:53.471Z,10.40
2022-11-05T00:58:22.920Z,10.34
2022-11-05T01:00:56.972Z,10.30
2022-11-05T01:03:29.659Z,10.28
2022-11-05T01:06:06.221Z,10.20
2022-11-05T01:08:34.074Z,10.20
2022-11-05T01:11:11.484Z,10.20
2022-11-05T01:13:40.191Z,10.20
2022-11-05T01:16:09.827Z,10.20
2022-11-05T01:18:38.886Z,10.20
2022-11-05T01:21:13.185Z,10.20
2022-11-05T01:23:40.967Z,10.20
2022-11-05T01:26:08.805Z,10.20
2022-11-05T01:28:36.685Z,10.20
2022-11-05T01:31:04.835Z,10.20
2022-11-05T01:33:32.707Z,10.22
2022-11-05T01:36:00.813Z,10.20
2022-11-05T01:38:28.618Z,10.20
2022-11-05T01:40:56.405Z,10.20
2022-11-05T01:43:24.242Z,10.20
2022-11-05T01:45:57.586Z,10.14
2022-11-05T01:48:33.077Z,10.10
2022-11-05T01:51:08.786Z,10.10
2022-11-05T01:53:43.407Z,10.10
2022-11-05T01:56:16.211Z,10.10
2022-11-05T01:59:03.688Z,10.04
2022-11-05T02:01:31.937Z,10.00
2022-11-05T02:04:08.684Z,10.00
2022-11-05T02:06:46.055Z,10.00
2022-11-05T02:09:27.706Z,10.00
2022-11-05T02:11:55.542Z,10.00
2022-11-05T02:14:23.536Z,10.00
2022-11-05T02:17:16.121Z,10.10
2022-11-05T02:19:53.173Z,10.02
2022-11-05T02:23:04.029Z,10.00
2022-11-05T02:26:13.609Z,10.04
2022-11-05T02:29:37.669Z,10.02
2022-11-05T02:32:23.049Z,10.10
2022-11-05T02:35:27.060Z,10.06
2022-11-05T02:38:13.271Z,10.00
2022-11-05T02:41:13.477Z,10.00
2022-11-05T02:44:19.145Z,10.00
2022-11-05T02:47:03.714Z,9.90
2022-11-05T02:49:57.527Z,9.90
2022-11-05T02:52:43.257Z,9.90
2022-11-05T02:55:29.988Z,9.84
2022-11-05T02:57:59.776Z,9.80
2022-11-05T03:00:39.519Z,9.80
